Time;durP1;ratioP1;P1;durP2;ratioP2;P2;SDS_P1;SDS_P2;PMS_P1;PMS_P2;Temp;Humidity;BMP_temperature;BMP_pressure;BME280_temperature;BME280_humidity;BME280_pressure;Samples;Min_cycle;Max_cycle;Signal;HPM_P1;HPM_P2
2023/08/05 00:04:30;;;;;;;19.90;3.88;;;24.10;74.40;;;;;;6270963;22;20058;-70
2023/08/05 00:06:55;;;;;;;14.65;3.42;;;24.00;74.20;;;;;;6276577;22;20444;-70
2023/08/05 00:09:22;;;;;;;14.73;3.40;;;24.00;74.40;;;;;;6276687;22;20020;-71
2023/08/05 00:11:48;;;;;;;16.00;3.28;;;24.00;74.30;;;;;;6276911;22;20413;-71
2023/08/05 00:14:14;;;;;;;14.50;3.00;;;23.90;74.30;;;;;;6276899;22;20080;-72
2023/08/05 00:16:40;;;;;;;16.67;3.60;;;23.90;74.70;;;;;;6276556;22;20007;-71
2023/08/05 00:19:06;;;;;;;13.63;3.35;;;23.90;74.60;;;;;;6276675;22;20049;-71
2023/08/05 00:21:32;;;;;;;22.08;4.00;;;23.90;74.50;;;;;;6276381;22;20475;-70
2023/08/05 00:23:57;;;;;;;12.50;3.10;;;23.90;74.70;;;;;;6276639;22;20034;-70
2023/08/05 00:26:23;;;;;;;19.92;3.88;;;23.80;74.80;;;;;;6276432;22;20062;-70
2023/08/05 00:28:49;;;;;;;19.60;3.67;;;23.80;74.70;;;;;;6276891;22;20095;-70
2023/08/05 00:31:14;;;;;;;16.48;3.63;;;23.80;74.80;;;;;;6276445;22;20004;-70
2023/08/05 00:33:40;;;;;;;12.75;2.97;;;23.70;75.10;;;;;;6276567;22;20003;-70
2023/08/05 00:36:05;;;;;;;23.20;3.55;;;23.70;75.30;;;;;;6276929;22;20133;-71
2023/08/05 00:38:31;;;;;;;13.50;3.53;;;23.70;75.10;;;;;;6276488;22;20532;-71
2023/08/05 00:40:57;;;;;;;15.82;3.47;;;23.60;75.30;;;;;;6276628;22;20425;-70
2023/08/05 00:43:23;;;;;;;18.80;3.65;;;23.70;75.40;;;;;;6275872;22;20337;-71
2023/08/05 00:45:49;;;;;;;13.38;3.53;;;23.70;75.40;;;;;;6275848;22;20107;-70
2023/08/05 00:48:15;;;;;;;18.05;4.00;;;23.60;75.20;;;;;;6276279;22;20466;-70
2023/08/05 00:50:41;;;;;;;15.25;3.38;;;23.60;75.50;;;;;;6276181;22;20007;-71
2023/08/05 00:53:07;;;;;;;19.65;3.03;;;23.60;75.40;;;;;;6276128;22;20003;-70
2023/08/05 00:55:33;;;;;;;16.20;3.72;;;23.60;75.40;;;;;;6276346;22;20007;-70
2023/08/05 00:57:59;;;;;;;19.92;3.45;;;23.60;75.40;;;;;;6275900;22;20456;-70
2023/08/05 01:00:25;;;;;;;12.15;3.17;;;23.60;75.70;;;;;;6276063;22;19995;-71
2023/08/05 01:02:50;;;;;;;12.75;3.08;;;23.60;75.80;;;;;;6275923;22;20020;-70
2023/08/05 01:05:18;;;;;;;18.98;4.13;;;23.60;75.70;;;;;;6276109;22;20004;-71
2023/08/05 01:07:44;;;;;;;14.13;3.20;;;23.60;75.60;;;;;;6275937;22;20008;-70
2023/08/05 01:10:10;;;;;;;12.05;3.17;;;23.60;75.80;;;;;;6275997;22;20000;-70
2023/08/05 01:12:36;;;;;;;14.25;2.58;;;23.50;75.80;;;;;;6275943;22;20013;-71
2023/08/05 01:15:02;;;;;;;13.77;2.75;;;23.50;75.90;;;;;;6276013;22;20000;-71
2023/08/05 01:17:27;;;;;;;12.20;3.20;;;23.40;76.10;;;;;;6275675;22;20000;-70
2023/08/05 01:19:53;;;;;;;11.05;3.17;;;23.30;76.20;;;;;;6275771;22;20042;-71
2023/08/05 01:22:39;;;;;;;13.65;3.40;;;23.30;76.30;;;;;;6275898;22;20307;-70
2023/08/05 01:25:06;;;;;;;14.10;3.30;;;23.30;76.80;;;;;;6276085;22;20000;-71
2023/08/05 01:27:33;;;;;;;18.17;3.42;;;23.30;76.40;;;;;;6276400;22;20004;-70
2023/08/05 01:29:59;;;;;;;15.93;3.40;;;23.30;76.60;;;;;;6275867;22;20437;-71
2023/08/05 01:32:25;;;;;;;13.20;3.22;;;23.30;76.40;;;;;;6276940;22;20015;-69
2023/08/05 01:34:52;;;;;;;11.52;2.85;;;23.40;76.40;;;;;;6288834;22;20023;-70
2023/08/05 01:37:17;;;;;;;16.35;3.50;;;23.40;76.40;;;;;;6299076;22;20314;-70
2023/08/05 01:39:43;;;;;;;17.92;3.22;;;23.40;76.70;;;;;;6275983;22;20011;-70
2023/08/05 01:42:09;;;;;;;12.18;3.42;;;23.40;76.70;;;;;;6275518;22;20050;-70
2023/08/05 01:44:35;;;;;;;13.07;3.05;;;23.50;76.80;;;;;;6275294;22;20004;-70
2023/08/05 01:47:00;;;;;;;15.07;3.22;;;23.60;76.90;;;;;;6274981;22;20013;-70
2023/08/05 01:49:26;;;;;;;15.10;3.22;;;23.70;77.20;;;;;;6275231;22;20002;-71
2023/08/05 01:51:52;;;;;;;14.65;3.60;;;23.70;76.90;;;;;;6275221;22;20025;-70
2023/08/05 01:54:17;;;;;;;14.85;3.20;;;23.80;77.10;;;;;;6275130;22;20406;-69
2023/08/05 01:56:43;;;;;;;17.85;3.15;;;23.80;77.20;;;;;;6248092;22;20297;-70
2023/08/05 01:59:09;;;;;;;15.85;3.15;;;23.80;77.30;;;;;;6275325;22;20004;-70
2023/08/05 02:01:48;;;;;;;17.15;3.20;;;23.80;77.20;;;;;;6275559;22;20010;-70
2023/08/05 02:04:14;;;;;;;18.30;3.13;;;23.80;77.20;;;;;;6275146;22;20073;-69
2023/08/05 02:06:40;;;;;;;12.07;2.67;;;23.80;77.50;;;;;;6275358;22;20078;-71
2023/08/05 02:09:07;;;;;;;14.23;2.80;;;23.80;77.60;;;;;;6275220;22;20425;-70
2023/08/05 02:11:33;;;;;;;13.65;3.25;;;23.80;77.60;;;;;;6274779;22;20309;-69
2023/08/05 02:13:59;;;;;;;15.55;3.40;;;23.90;77.50;;;;;;6275227;22;20074;-70
2023/08/05 02:16:25;;;;;;;17.02;3.05;;;23.90;77.60;;;;;;6274853;22;20358;-70
2023/08/05 02:18:51;;;;;;;13.48;3.42;;;23.90;77.50;;;;;;6274754;22;20011;-71
2023/08/05 02:21:17;;;;;;;13.25;3.45;;;23.90;77.80;;;;;;6275050;22;19999;-70
2023/08/05 02:23:42;;;;;;;14.73;2.88;;;23.90;77.70;;;;;;6275033;22;20000;-70
2023/08/05 02:26:08;;;;;;;18.25;3.47;;;23.90;77.90;;;;;;6275044;22;20337;-69
2023/08/05 02:28:34;;;;;;;15.82;3.20;;;23.90;78.10;;;;;;6275109;22;20003;-72
2023/08/05 02:30:59;;;;;;;14.02;3.20;;;23.80;78.00;;;;;;6275016;22;20004;-70
2023/08/05 02:33:25;;;;;;;14.15;2.95;;;23.70;78.10;;;;;;6275243;22;20006;-70
2023/08/05 02:35:59;;;;;;;13.13;2.65;;;23.70;78.30;;;;;;6275132;22;20452;-71
2023/08/05 02:38:24;;;;;;;10.98;2.53;;;23.70;78.30;;;;;;6275755;22;20103;-71
2023/08/05 02:40:50;;;;;;;18.23;3.22;;;23.70;78.40;;;;;;6275059;22;20442;-70
2023/08/05 02:43:16;;;;;;;16.30;3.00;;;23.70;78.50;;;;;;6274901;22;19999;-70
2023/08/05 02:45:42;;;;;;;13.90;3.10;;;23.70;78.30;;;;;;6274708;22;20042;-69
2023/08/05 02:48:08;;;;;;;13.63;2.72;;;23.70;78.60;;;;;;6275005;22;20366;-70
2023/08/05 02:50:34;;;;;;;13.98;2.72;;;23.70;78.40;;;;;;6275174;22;20053;-71
2023/08/05 02:53:00;;;;;;;14.55;2.88;;;23.70;78.40;;;;;;6275197;22;20004;-71
2023/08/05 02:55:27;;;;;;;16.02;2.78;;;23.70;78.40;;;;;;6274789;22;20018;-70
2023/08/05 02:57:53;;;;;;;8.90;2.45;;;23.60;78.20;;;;;;6275052;22;19996;-71
2023/08/05 03:00:19;;;;;;;18.38;3.30;;;23.70;78.40;;;;;;6275379;22;20004;-72
2023/08/05 03:02:45;;;;;;;13.73;3.13;;;23.60;78.30;;;;;;6275079;22;20000;-70
2023/08/05 03:05:11;;;;;;;14.90;3.30;;;23.60;78.20;;;;;;6275145;22;20010;-70
2023/08/05 03:07:36;;;;;;;11.63;2.90;;;23.60;78.30;;;;;;6276792;22;20012;-70
2023/08/05 03:10:02;;;;;;;13.27;2.97;;;23.60;78.40;;;;;;6276746;22;20326;-70
2023/08/05 03:12:28;;;;;;;12.07;2.85;;;23.60;78.50;;;;;;6277131;22;20027;-71
2023/08/05 03:14:54;;;;;;;15.65;3.08;;;23.60;78.60;;;;;;6276843;22;19999;-70
2023/08/05 03:17:19;;;;;;;12.80;3.03;;;23.50;78.60;;;;;;6276755;22;19995;-72
2023/08/05 03:19:45;;;;;;;17.73;3.53;;;23.50;78.50;;;;;;6276907;22;20004;-71
2023/08/05 03:22:11;;;;;;;9.98;2.50;;;23.50;78.70;;;;;;6277019;22;20003;-70
2023/08/05 03:24:36;;;;;;;12.48;2.35;;;23.50;78.60;;;;;;6276982;22;20004;-71
2023/08/05 03:27:02;;;;;;;16.20;3.45;;;23.50;78.60;;;;;;6276469;22;20070;-69
2023/08/05 03:29:28;;;;;;;14.98;2.58;;;23.40;78.60;;;;;;6276876;22;20003;-70
2023/08/05 03:31:54;;;;;;;18.60;3.15;;;23.40;78.60;;;;;;6276845;22;20516;-70
2023/08/05 03:34:20;;;;;;;19.02;3.13;;;23.30;78.80;;;;;;6276691;22;19996;-71
2023/08/05 03:36:45;;;;;;;16.60;2.80;;;23.30;79.00;;;;;;6277157;22;20095;-70
2023/08/05 03:39:11;;;;;;;12.95;2.58;;;23.20;79.10;;;;;;6276616;22;20425;-69
2023/08/05 03:41:37;;;;;;;13.93;3.20;;;23.10;79.30;;;;;;6276727;22;20004;-70
2023/08/05 03:44:03;;;;;;;16.27;2.90;;;23.10;79.40;;;;;;6276655;22;19999;-70
2023/08/05 03:46:28;;;;;;;12.55;3.15;;;23.10;79.70;;;;;;6276460;22;20016;-70
2023/08/05 03:48:55;;;;;;;11.75;2.90;;;23.10;79.60;;;;;;6249374;22;20007;-70
2023/08/05 03:51:21;;;;;;;15.10;3.10;;;23.00;79.70;;;;;;6276810;22;20352;-71
2023/08/05 03:53:47;;;;;;;16.02;4.03;;;23.00;80.00;;;;;;6276087;22;19992;-69
2023/08/05 03:56:13;;;;;;;14.07;3.47;;;23.00;80.50;;;;;;6249475;22;19999;-71
2023/08/05 03:58:39;;;;;;;13.05;2.90;;;23.10;79.90;;;;;;6276419;22;20000;-70
2023/08/05 04:01:06;;;;;;;14.85;3.20;;;23.10;79.70;;;;;;6276626;22;20075;-70
2023/08/05 04:03:33;;;;;;;15.05;3.30;;;23.10;79.80;;;;;;6275981;22;20106;-70
2023/08/05 04:05:58;;;;;;;15.50;2.95;;;23.10;79.80;;;;;;6276297;22;20008;-71
2023/08/05 04:08:26;;;;;;;13.38;3.35;;;23.10;79.90;;;;;;6276380;22;20006;-70
2023/08/05 04:10:51;;;;;;;12.20;3.03;;;23.10;80.00;;;;;;6276922;22;20061;-71
2023/08/05 04:13:18;;;;;;;17.45;5.50;;;23.20;80.10;;;;;;6276261;22;20325;-70
2023/08/05 04:15:45;;;;;;;20.27;5.97;;;23.20;80.30;;;;;;6276000;22;20069;-70
2023/08/05 04:18:10;;;;;;;14.43;4.60;;;23.20;80.30;;;;;;6276393;22;20079;-70
2023/08/05 04:20:38;;;;;;;17.98;4.53;;;23.20;80.10;;;;;;6276266;22;20028;-70
2023/08/05 04:23:05;;;;;;;15.77;4.78;;;23.20;80.30;;;;;;6276461;22;20018;-71
2023/08/05 04:25:32;;;;;;;12.63;3.13;;;23.20;80.30;;;;;;6276080;22;20000;-70
2023/08/05 04:27:58;;;;;;;15.60;4.63;;;23.10;80.60;;;;;;6276196;22;20004;-71
2023/08/05 04:30:24;;;;;;;16.77;5.88;;;23.10;80.80;;;;;;6276234;22;20413;-70
2023/08/05 04:32:50;;;;;;;29.70;7.50;;;23.10;81.20;;;;;;6276155;22;20010;-71
2023/08/05 04:35:16;;;;;;;22.95;7.55;;;23.00;81.20;;;;;;6275807;22;20057;-70
2023/08/05 04:37:41;;;;;;;26.88;9.90;;;23.00;81.20;;;;;;6276189;22;19999;-70
2023/08/05 04:40:08;;;;;;;19.70;7.40;;;23.10;81.30;;;;;;6276238;22;20000;-70
2023/08/05 04:42:33;;;;;;;19.23;6.95;;;23.00;81.20;;;;;;6276218;22;19999;-70
2023/08/05 04:45:00;;;;;;;20.02;7.30;;;23.00;80.90;;;;;;6276705;22;20060;-71
2023/08/05 04:47:26;;;;;;;19.48;7.15;;;22.90;80.90;;;;;;6276172;22;20004;-71
2023/08/05 04:49:51;;;;;;;16.42;6.63;;;22.80;81.00;;;;;;6275810;22;20014;-70
2023/08/05 04:52:17;;;;;;;17.77;6.43;;;22.70;80.90;;;;;;6276009;22;20011;-71
2023/08/05 04:54:44;;;;;;;15.35;6.22;;;22.70;81.30;;;;;;6276135;22;20067;-72
2023/08/05 04:57:10;;;;;;;16.92;5.97;;;22.60;81.40;;;;;;6276184;22;20046;-71
2023/08/05 04:59:36;;;;;;;18.17;6.07;;;22.50;81.50;;;;;;6275998;22;20008;-70
2023/08/05 05:02:02;;;;;;;14.63;4.88;;;22.50;81.70;;;;;;6276401;22;20358;-70
2023/08/05 05:04:28;;;;;;;21.27;5.22;;;22.40;81.70;;;;;;6275329;22;20045;-71
2023/08/05 05:06:53;;;;;;;11.73;3.72;;;22.40;81.90;;;;;;6275577;22;20011;-70
2023/08/05 05:09:19;;;;;;;15.73;4.30;;;22.50;82.00;;;;;;6276432;22;20004;-72
2023/08/05 05:11:45;;;;;;;13.85;3.70;;;22.40;81.70;;;;;;6275573;22;20079;-70
2023/08/05 05:14:10;;;;;;;14.50;4.03;;;22.40;81.80;;;;;;6275745;22;20010;-70
2023/08/05 05:16:36;;;;;;;11.65;3.38;;;22.40;81.70;;;;;;6276142;22;20003;-70
2023/08/05 05:19:02;;;;;;;11.50;3.45;;;22.40;81.90;;;;;;6276425;22;20102;-70
2023/08/05 05:21:27;;;;;;;12.57;3.55;;;22.50;81.60;;;;;;6248905;22;20019;-71
2023/08/05 05:23:53;;;;;;;15.80;3.90;;;22.60;81.90;;;;;;6275936;22;19995;-70
2023/08/05 05:26:19;;;;;;;11.50;3.92;;;22.60;81.50;;;;;;6276358;22;20019;-70
2023/08/05 05:28:44;;;;;;;14.25;3.70;;;22.60;81.70;;;;;;6275768;22;20374;-70
2023/08/05 05:31:10;;;;;;;11.93;3.58;;;22.50;81.60;;;;;;6275923;22;20000;-71
2023/08/05 05:33:36;;;;;;;10.93;3.25;;;22.40;81.80;;;;;;6276289;22;19995;-71
2023/08/05 05:36:02;;;;;;;8.32;2.88;;;22.40;82.10;;;;;;6288826;22;20083;-70
2023/08/05 05:38:27;;;;;;;13.70;3.88;;;22.40;82.30;;;;;;6284989;22;19996;-70
2023/08/05 05:40:56;;;;;;;10.63;3.70;;;22.40;82.20;;;;;;6277245;22;20380;-71
2023/08/05 05:43:22;;;;;;;12.35;3.30;;;22.40;82.60;;;;;;6275858;22;20141;-71
2023/08/05 05:45:52;;;;;;;12.40;3.58;;;22.40;81.60;;;;;;6275486;22;20011;-70
2023/08/05 05:48:18;;;;;;;10.48;3.13;;;22.30;81.40;;;;;;6275650;22;20003;-70
2023/08/05 05:50:43;;;;;;;11.65;3.60;;;22.30;81.70;;;;;;6248187;22;20015;-71
2023/08/05 05:53:13;;;;;;;12.48;3.38;;;22.40;81.80;;;;;;6275811;22;20111;-73
2023/08/05 05:55:45;;;;;;;13.18;3.85;;;22.50;81.60;;;;;;6248387;22;20003;-71
2023/08/05 05:58:11;;;;;;;9.40;3.22;;;22.60;81.10;;;;;;6275494;22;20030;-72
2023/08/05 06:00:39;;;;;;;10.73;3.63;;;22.70;81.20;;;;;;6276463;22;20000;-73
2023/08/05 08:40:55;;;;;;;10.70;2.20;;;26.60;59.90;;;;;;6243258;23;20453;-71
2023/08/05 08:43:21;;;;;;;6.57;1.98;;;26.50;59.70;;;;;;6244568;23;20083;-71
2023/08/05 08:45:51;;;;;;;4.85;1.75;;;26.40;59.50;;;;;;6245273;23;20417;-73
2023/08/05 08:48:17;;;;;;;12.60;2.13;;;26.40;59.30;;;;;;6245255;23;20031;-71
2023/08/05 08:50:44;;;;;;;6.68;1.80;;;26.50;59.00;;;;;;6245231;23;20023;-71
2023/08/05 08:53:13;;;;;;;12.05;3.17;;;26.40;58.60;;;;;;6245537;23;20319;-72
2023/08/05 08:55:41;;;;;;;10.90;2.78;;;26.40;58.50;;;;;;6245424;23;20004;-70
2023/08/05 08:58:07;;;;;;;9.10;2.53;;;26.50;58.60;;;;;;6245229;23;20009;-70
2023/08/05 09:00:33;;;;;;;7.22;2.13;;;26.50;58.00;;;;;;6218872;23;20039;-71
2023/08/05 09:03:00;;;;;;;10.75;2.97;;;26.60;58.00;;;;;;6245226;23;20008;-71
2023/08/05 09:05:42;;;;;;;11.02;2.70;;;26.70;57.90;;;;;;6245558;23;20477;-71
2023/08/05 09:08:08;;;;;;;12.23;2.25;;;26.60;58.40;;;;;;6245327;23;20015;-72
2023/08/05 09:10:38;;;;;;;7.15;2.00;;;26.70;57.60;;;;;;6245575;23;20385;-71
2023/08/05 09:13:05;;;;;;;9.80;2.22;;;26.60;57.30;;;;;;6245866;23;20279;-71
2023/08/05 09:15:33;;;;;;;8.93;2.58;;;26.60;57.30;;;;;;6245296;23;20433;-70
2023/08/05 09:17:59;;;;;;;9.48;2.05;;;26.50;57.50;;;;;;6244848;23;20418;-70
2023/08/05 09:20:25;;;;;;;21.23;4.15;;;26.50;57.10;;;;;;6245176;23;20008;-70
2023/08/05 09:23:02;;;;;;;15.27;4.28;;;26.40;57.60;;;;;;6246019;23;20333;-70
2023/08/05 09:25:32;;;;;;;10.68;2.80;;;26.50;58.00;;;;;;6245782;23;20008;-71
2023/08/05 09:28:00;;;;;;;11.02;2.55;;;26.60;58.10;;;;;;6245084;23;20042;-72
2023/08/05 09:30:26;;;;;;;8.60;2.50;;;26.60;57.70;;;;;;6245824;23;20477;-71
2023/08/05 09:32:52;;;;;;;9.93;2.50;;;26.60;57.50;;;;;;6245631;23;20016;-71
2023/08/05 09:35:18;;;;;;;13.75;4.30;;;26.60;57.30;;;;;;6245422;23;20031;-74
2023/08/05 09:37:46;;;;;;;8.25;2.22;;;26.50;58.30;;;;;;6245626;23;20015;-72
2023/08/05 09:40:22;;;;;;;9.70;2.83;;;26.60;57.40;;;;;;6245088;23;20345;-72
2023/08/05 09:42:54;;;;;;;13.20;3.22;;;26.60;57.50;;;;;;6245461;23;20057;-72
2023/08/05 09:45:21;;;;;;;12.75;2.85;;;26.70;57.60;;;;;;6245140;23;20116;-72
2023/08/05 09:47:49;;;;;;;8.32;2.85;;;26.80;57.50;;;;;;6217851;23;20062;-73
2023/08/05 09:50:16;;;;;;;9.23;2.40;;;26.70;57.40;;;;;;6245111;23;20362;-71
2023/08/05 09:52:49;;;;;;;8.20;2.33;;;26.60;57.90;;;;;;6244081;23;20039;-72
2023/08/05 09:55:16;;;;;;;8.23;2.17;;;26.60;58.40;;;;;;6217717;23;20004;-73
2023/08/05 09:57:43;;;;;;;5.85;2.13;;;26.40;59.10;;;;;;6244728;23;20004;-73
2023/08/05 10:00:11;;;;;;;5.88;2.08;;;26.10;59.60;;;;;;6245376;23;20438;-72
2023/08/05 10:02:41;;;;;;;6.97;1.77;;;25.90;60.50;;;;;;6245132;23;20004;-71
2023/08/05 10:05:12;;;;;;;9.85;2.42;;;25.70;61.40;;;;;;6217451;23;20083;-72
2023/08/05 10:07:42;;;;;;;16.48;2.67;;;25.60;62.10;;;;;;6244528;23;20008;-75
2023/08/05 10:10:13;;;;;;;7.68;2.15;;;25.60;62.70;;;;;;6244244;23;20024;-73
2023/08/05 10:12:59;;;;;;;7.18;2.03;;;25.60;63.00;;;;;;6244975;23;20376;-79
2023/08/05 10:15:29;;;;;;;5.43;1.95;;;25.40;63.30;;;;;;6244887;23;20000;-78
2023/08/05 10:17:56;;;;;;;8.40;2.65;;;25.40;63.90;;;;;;6245902;23;20426;-84
2023/08/05 10:20:22;;;;;;;8.77;2.70;;;25.40;64.10;;;;;;6245347;23;20004;-76
2023/08/05 10:23:17;;;;;;;6.32;2.20;;;25.40;64.50;;;;;;6245445;23;20003;-71
2023/08/05 10:25:48;;;;;;;10.02;2.63;;;25.40;64.00;;;;;;6213406;23;20528;-77
2023/08/05 10:28:22;;;;;;;10.93;2.58;;;25.30;64.00;;;;;;6244648;23;20008;-78
2023/08/05 10:30:48;;;;;;;10.15;2.42;;;25.30;65.00;;;;;;6217722;23;20030;-78
2023/08/05 10:33:15;;;;;;;8.05;1.88;;;25.20;66.00;;;;;;6245035;23;20004;-74
2023/08/05 10:35:42;;;;;;;8.35;2.15;;;25.10;66.60;;;;;;6244696;23;20019;-80
2023/08/05 10:38:16;;;;;;;7.82;2.53;;;25.00;67.60;;;;;;6244068;23;20028;-83
2023/08/05 10:40:45;;;;;;;;;;;24.80;67.40;;;;;;6245318;23;20024;-84
2023/08/05 10:43:24;;;;;;;6.90;1.73;;;24.50;68.50;;;;;;6218335;23;19990;-81
2023/08/05 10:45:50;;;;;;;5.20;1.42;;;24.20;68.80;;;;;;6244433;23;20004;-83
2023/08/05 10:48:17;;;;;;;6.80;1.65;;;24.10;69.40;;;;;;6245112;23;20006;-83
2023/08/05 10:50:43;;;;;;;6.13;1.80;;;24.10;69.90;;;;;;6244295;23;20023;-80
2023/08/05 10:53:12;;;;;;;5.22;1.77;;;24.10;70.30;;;;;;6244242;23;20430;-85
2023/08/05 10:55:46;;;;;;;5.18;1.92;;;24.10;70.60;;;;;;6243357;23;20007;-82
2023/08/05 10:58:12;;;;;;;5.70;1.77;;;24.20;70.80;;;;;;6214398;23;20011;-85
2023/08/05 11:00:39;;;;;;;5.57;1.63;;;24.30;70.60;;;;;;6243947;23;20001;-76
2023/08/05 11:03:29;;;;;;;4.97;2.05;;;24.30;70.40;;;;;;6244741;23;20000;-83
2023/08/05 11:05:58;;;;;;;8.07;2.13;;;24.40;70.50;;;;;;6194703;23;20350;-81
2023/08/05 11:08:26;;;;;;;7.45;2.03;;;24.40;70.60;;;;;;6245756;23;20000;-82
2023/08/05 11:10:51;;;;;;;7.10;3.00;;;24.40;70.30;;;;;;6244064;23;20084;-82
2023/08/05 11:13:18;;;;;;;5.93;2.35;;;24.30;71.00;;;;;;6244430;23;20006;-82
2023/08/05 11:16:08;;;;;;;7.70;2.22;;;24.30;71.40;;;;;;6245282;23;20365;-83
2023/08/05 11:18:35;;;;;;;6.53;2.17;;;24.10;71.90;;;;;;6200187;23;20087;-81
2023/08/05 11:21:03;;;;;;;8.93;2.20;;;24.00;71.70;;;;;;6244925;23;20012;-81
2023/08/05 11:23:29;;;;;;;6.18;2.20;;;24.00;72.40;;;;;;6244561;23;20015;-81
2023/08/05 11:25:57;;;;;;;7.75;1.95;;;23.80;71.90;;;;;;6244070;23;20118;-87
2023/08/05 11:28:23;;;;;;;10.52;2.20;;;23.80;72.10;;;;;;6246195;23;20008;-83
2023/08/05 11:30:49;;;;;;;5.65;1.88;;;23.70;71.70;;;;;;6245734;23;19996;-84
2023/08/05 11:33:15;;;;;;;5.20;2.20;;;23.60;71.50;;;;;;6246610;23;20011;-81
2023/08/05 11:35:48;;;;;;;5.75;2.05;;;23.60;71.80;;;;;;6245985;23;20342;-77
2023/08/05 11:38:18;;;;;;;;;;;23.70;71.80;;;;;;6246782;23;20299;-80
2023/08/05 11:40:47;;;;;;;9.27;2.08;;;23.70;71.30;;;;;;6246009;23;19918;-83
2023/08/05 11:43:14;;;;;;;6.88;1.90;;;23.70;71.40;;;;;;6246320;23;20079;-80
2023/08/05 11:45:40;;;;;;;5.70;1.83;;;23.60;71.70;;;;;;6246180;23;20031;-79
2023/08/05 11:48:26;;;;;;;6.55;2.10;;;23.60;72.20;;;;;;6245156;23;20004;-84
2023/08/05 11:50:59;;;;;;;6.97;2.10;;;23.50;72.60;;;;;;6247470;23;20054;-83
2023/08/05 11:53:28;;;;;;;;;;;23.60;72.30;;;;;;6245418;23;20038;-82
2023/08/05 11:55:54;;;;;;;9.00;3.13;;;23.70;72.30;;;;;;6244614;23;19900;-81
2023/08/05 11:58:23;;;;;;;4.95;2.03;;;23.70;72.20;;;;;;6247050;23;20018;-82
2023/08/05 12:00:52;;;;;;;6.72;2.38;;;23.70;72.50;;;;;;6261314;23;20055;-80
2023/08/05 12:03:18;;;;;;;9.00;2.28;;;23.70;72.90;;;;;;6250964;23;20016;-82
2023/08/05 12:05:45;;;;;;;4.38;1.83;;;23.60;72.90;;;;;;6245936;23;20050;-82
2023/08/05 12:08:12;;;;;;;5.57;2.22;;;23.60;73.00;;;;;;6219767;23;20016;-82
2023/08/05 12:10:39;;;;;;;5.53;2.10;;;23.70;73.00;;;;;;6246506;23;20008;-80
2023/08/05 12:13:09;;;;;;;5.88;1.85;;;23.70;72.80;;;;;;6247237;23;20437;-83
2023/08/05 12:15:35;;;;;;;5.93;1.70;;;23.80;72.60;;;;;;6247609;23;20000;-85
2023/08/05 12:18:06;;;;;;;3.67;1.65;;;23.80;72.50;;;;;;6247284;23;20454;-83
2023/08/05 12:20:36;;;;;;;5.65;2.00;;;23.90;72.30;;;;;;6247324;23;20434;-85
2023/08/05 12:23:02;;;;;;;6.97;1.60;;;24.00;72.40;;;;;;6247345;23;20004;-85
2023/08/05 12:25:30;;;;;;;8.00;1.77;;;24.10;72.60;;;;;;6247640;23;20031;-85
2023/08/05 12:27:56;;;;;;;6.90;2.03;;;24.20;72.80;;;;;;6247836;23;20077;-76
2023/08/05 12:30:22;;;;;;;6.55;2.00;;;24.20;72.70;;;;;;6247372;23;20492;-82
2023/08/05 12:32:48;;;;;;;4.32;1.90;;;24.20;72.90;;;;;;6249518;23;20000;-76
2023/08/05 12:35:14;;;;;;;5.90;1.90;;;24.20;72.30;;;;;;6245935;23;20052;-75
2023/08/05 12:37:41;;;;;;;9.95;1.80;;;24.20;71.60;;;;;;6245395;23;20079;-74
2023/08/05 12:40:09;;;;;;;6.30;1.80;;;24.20;71.20;;;;;;6246512;23;20020;-79
2023/08/05 12:42:36;;;;;;;2.72;1.50;;;24.20;71.20;;;;;;6220166;23;20391;-81
2023/08/05 12:45:05;;;;;;;6.75;1.40;;;24.20;70.50;;;;;;6247014;23;20007;-81
2023/08/05 12:47:31;;;;;;;4.07;1.67;;;24.20;69.70;;;;;;6247015;23;20346;-85
2023/08/05 12:49:58;;;;;;;4.82;1.67;;;24.30;69.10;;;;;;6246664;23;20000;-79
2023/08/05 12:52:25;;;;;;;3.17;1.25;;;24.30;69.70;;;;;;6247419;23;20484;-80
2023/08/05 12:54:50;;;;;;;3.55;1.60;;;24.30;70.50;;;;;;6219781;23;20079;-83
2023/08/05 12:57:16;;;;;;;5.18;1.90;;;24.40;70.60;;;;;;6246724;23;20031;-85
2023/08/05 12:59:42;;;;;;;8.13;2.05;;;24.40;70.80;;;;;;6247534;23;20008;-84
2023/08/05 13:02:08;;;;;;;5.05;2.00;;;24.30;71.50;;;;;;6248726;23;20007;-84
2023/08/05 13:04:34;;;;;;;4.60;1.60;;;24.40;71.60;;;;;;6249763;23;20004;-83
2023/08/05 13:07:00;;;;;;;5.70;1.75;;;24.40;71.30;;;;;;6248386;23;20386;-83
2023/08/05 13:09:26;;;;;;;8.43;3.38;;;24.30;71.40;;;;;;6247925;23;20418;-83
2023/08/05 13:11:52;;;;;;;6.05;1.90;;;24.20;71.10;;;;;;6247532;23;20432;-84
2023/08/05 13:14:18;;;;;;;4.50;1.73;;;24.20;71.10;;;;;;6247445;23;20035;-85
2023/08/05 13:16:43;;;;;;;5.05;1.80;;;24.20;71.40;;;;;;6247004;23;20015;-84
2023/08/05 13:19:09;;;;;;;4.85;1.70;;;24.30;71.10;;;;;;6246252;23;20019;-84
2023/08/05 13:21:36;;;;;;;8.32;4.43;;;24.40;71.40;;;;;;6247439;23;20023;-84
2023/08/05 13:24:03;;;;;;;4.93;2.10;;;24.50;70.80;;;;;;6246632;23;19996;-84
2023/08/05 13:26:29;;;;;;;4.78;1.50;;;24.50;70.20;;;;;;6247245;23;20012;-81
2023/08/05 13:28:56;;;;;;;4.03;1.58;;;24.50;69.10;;;;;;6246366;23;20004;-84
2023/08/05 13:31:23;;;;;;;3.40;1.25;;;24.60;68.50;;;;;;6218929;23;20004;-84
2023/08/05 13:33:50;;;;;;;4.30;1.60;;;24.70;68.10;;;;;;6246509;23;20005;-83
2023/08/05 13:36:16;;;;;;;2.92;1.30;;;24.80;68.10;;;;;;6247128;23;20004;-86
2023/08/05 13:38:42;;;;;;;2.33;1.17;;;24.70;67.40;;;;;;6247264;23;20062;-85
2023/08/05 13:41:07;;;;;;;2.85;1.20;;;24.70;67.70;;;;;;6247593;23;20027;-84
2023/08/05 13:43:33;;;;;;;2.97;1.23;;;24.80;67.60;;;;;;6248171;23;20082;-85
2023/08/05 13:46:02;;;;;;;2.72;1.00;;;24.90;66.70;;;;;;6247020;23;20048;-85
2023/08/05 13:48:31;;;;;;;2.10;1.00;;;25.00;66.50;;;;;;6246729;23;20000;-84
2023/08/05 13:51:01;;;;;;;3.85;1.33;;;25.00;66.20;;;;;;6246706;23;20039;-83
2023/08/05 13:53:27;;;;;;;5.82;3.60;;;25.10;66.30;;;;;;6247529;23;20000;-83
2023/08/05 13:55:54;;;;;;;4.35;1.85;;;25.20;66.10;;;;;;6248188;23;20011;-84
2023/08/05 13:58:20;;;;;;;3.03;1.30;;;25.20;66.00;;;;;;6261475;22;20014;-85
2023/08/05 14:00:46;;;;;;;6.07;1.60;;;25.20;65.90;;;;;;6273472;22;20000;-81
2023/08/05 14:03:11;;;;;;;3.15;1.40;;;25.30;66.00;;;;;;6268663;22;20031;-82
2023/08/05 14:05:37;;;;;;;4.53;1.80;;;25.30;66.20;;;;;;6223000;23;20138;-79
2023/08/05 14:08:03;;;;;;;4.22;1.88;;;25.30;65.80;;;;;;6246431;23;20083;-83
2023/08/05 14:10:29;;;;;;;5.57;2.00;;;25.30;65.60;;;;;;6245433;23;20000;-76
2023/08/05 14:12:54;;;;;;;5.53;1.55;;;25.20;65.90;;;;;;6246118;23;20488;-83
2023/08/05 14:15:20;;;;;;;3.97;1.25;;;25.10;65.80;;;;;;6247739;23;20000;-82
2023/08/05 14:17:46;;;;;;;3.45;1.50;;;25.10;66.10;;;;;;6246657;23;20004;-81
2023/08/05 14:20:11;;;;;;;3.40;1.40;;;25.10;66.30;;;;;;6245292;23;20512;-81
2023/08/05 14:22:38;;;;;;;3.28;1.58;;;25.30;66.10;;;;;;6246280;23;20003;-81
2023/08/05 14:25:04;;;;;;;5.07;1.60;;;25.40;65.70;;;;;;6245969;23;20023;-82
2023/08/05 14:27:30;;;;;;;6.85;1.58;;;25.60;65.50;;;;;;6246168;23;20012;-82
2023/08/05 14:29:56;;;;;;;4.28;1.20;;;25.60;65.50;;;;;;6246146;23;20430;-82
2023/08/05 14:32:21;;;;;;;4.40;1.48;;;25.70;65.20;;;;;;6246029;23;20032;-81
2023/08/05 14:34:47;;;;;;;3.05;1.30;;;25.40;64.80;;;;;;6246728;23;20000;-80
2023/08/05 14:37:13;;;;;;;3.00;1.42;;;25.40;64.90;;;;;;6245764;23;20330;-81
